Terminal Aerodrome Forecast
Issued by NWS Quad Cities IA IL

Home | Current Version | Previous Version | Text Only | Print | Product List | Glossary On
Versions: 1 2 3 4 5 6 7 8 9 10 11 12 13
000
FTUS43 KDVN 280520
TAFDBQ
TAF
KDBQ 280520Z 2806/2906 VRB03KT P6SM SCT040 SCT120
     FM281200 36005KT P6SM SCT035 BKN100
     FM281600 02008KT P6SM SCT015 BKN025
      TEMPO 2817/2821 4SM -SHRA BR BKN015=

USA.gov is the U.S. government's official web portal to all federal, state and local government web resources and services.